createdAt,value
2019-05-12T00:01:12.744Z,25.06
2019-05-12T00:03:40.932Z,24.97
2019-05-12T00:06:08.842Z,24.97
2019-05-12T00:08:38.131Z,25.03
2019-05-12T00:11:08.767Z,25.03
2019-05-12T00:13:38.500Z,25.05
2019-05-12T00:16:08.626Z,25.01
2019-05-12T00:18:37.812Z,24.96
2019-05-12T00:21:08.645Z,24.83
2019-05-12T00:23:58.056Z,24.91
2019-05-12T00:26:28.148Z,24.93
2019-05-12T00:28:58.695Z,24.93
2019-05-12T00:31:28.003Z,24.96
2019-05-12T00:33:58.678Z,24.90
2019-05-12T00:36:29.092Z,24.87
2019-05-12T00:38:57.987Z,24.87
2019-05-12T00:41:28.255Z,24.77
2019-05-12T00:43:58.255Z,24.84
2019-05-12T00:46:28.020Z,24.84
2019-05-12T00:48:58.540Z,24.72
2019-05-12T00:51:28.625Z,24.72
2019-05-12T00:55:28.900Z,24.73
2019-05-12T00:57:58.137Z,24.73
2019-05-12T01:00:29.235Z,24.77
2019-05-12T01:02:58.208Z,24.70
2019-05-12T01:05:26.535Z,24.70
2019-05-12T01:07:57.922Z,24.74
2019-05-12T01:10:28.632Z,24.60
2019-05-12T01:12:58.591Z,24.63
2019-05-12T01:15:28.618Z,24.72
2019-05-12T01:17:58.604Z,24.59
2019-05-12T01:20:28.310Z,24.59
2019-05-12T01:22:57.998Z,24.71
2019-05-12T01:25:28.742Z,24.65
2019-05-12T01:27:55.891Z,24.64
2019-05-12T01:30:23.794Z,24.67
2019-05-12T01:32:51.964Z,24.68
2019-05-12T01:35:19.290Z,24.62
2019-05-12T01:37:48.404Z,24.55
2019-05-12T01:40:16.098Z,24.53
2019-05-12T01:42:48.391Z,24.60
2019-05-12T01:45:18.045Z,24.61
2019-05-12T01:47:48.453Z,24.61
2019-05-12T01:50:17.817Z,24.58
2019-05-12T01:52:47.820Z,24.55
2019-05-12T01:55:15.361Z,24.55
2019-05-12T01:57:42.651Z,24.50
2019-05-12T02:00:11.229Z,24.57
2019-05-12T02:02:39.409Z,24.54
2019-05-12T02:05:08.639Z,24.55
2019-05-12T02:07:41.804Z,24.43
2019-05-12T02:10:10.836Z,24.43
2019-05-12T02:12:39.056Z,24.50
2019-05-12T02:15:08.135Z,24.40
2019-05-12T02:17:39.139Z,24.44
2019-05-12T02:20:07.785Z,24.50
2019-05-12T02:22:38.610Z,24.50
2019-05-12T02:25:07.949Z,24.48
2019-05-12T02:27:35.388Z,24.45
2019-05-12T02:30:03.847Z,24.45
2019-05-12T02:32:43.264Z,24.41
2019-05-12T02:35:01.181Z,24.41
2019-05-12T02:37:29.367Z,24.40
2019-05-12T02:39:58.663Z,24.41
2019-05-12T02:42:27.585Z,24.41
2019-05-12T02:44:56.076Z,24.37
2019-05-12T02:47:24.424Z,24.35
2019-05-12T02:49:54.464Z,24.40
2019-05-12T02:52:24.950Z,24.34
2019-05-12T02:54:59.573Z,24.34
2019-05-12T02:57:25.714Z,24.35
2019-05-12T02:59:54.293Z,24.35
2019-05-12T03:02:24.452Z,24.35
2019-05-12T03:04:54.886Z,24.26
2019-05-12T03:07:25.436Z,24.26
2019-05-12T03:09:55.172Z,24.30
2019-05-12T03:12:25.623Z,24.28
2019-05-12T03:14:54.419Z,24.15
2019-05-12T03:17:25.255Z,24.15
2019-05-12T03:21:24.300Z,24.23
2019-05-12T03:23:54.865Z,24.23
2019-05-12T03:26:24.719Z,24.12
2019-05-12T03:28:55.567Z,24.21
2019-05-12T03:31:30.575Z,24.20
2019-05-12T03:33:59.530Z,24.13
2019-05-12T03:36:31.835Z,24.08
2019-05-12T03:38:55.138Z,24.08
2019-05-12T03:41:25.081Z,24.11
2019-05-12T03:43:54.966Z,24.11
2019-05-12T03:46:24.818Z,24.10
2019-05-12T03:48:55.294Z,24.02
2019-05-12T03:51:25.345Z,24.02
2019-05-12T03:53:55.671Z,24.04
2019-05-12T03:56:26.013Z,24.04
2019-05-12T03:58:54.944Z,24.12
2019-05-12T04:01:25.476Z,24.11
2019-05-12T04:03:54.278Z,24.11
2019-05-12T04:06:24.513Z,24.11
2019-05-12T04:08:54.998Z,24.11
2019-05-12T04:11:25.011Z,24.06
2019-05-12T04:13:55.054Z,24.08
2019-05-12T04:16:24.755Z,24.01
2019-05-12T04:18:55.225Z,24.11
2019-05-12T04:21:24.448Z,24.11
2019-05-12T04:23:54.787Z,24.03
2019-05-12T04:26:25.350Z,23.99
2019-05-12T04:28:54.949Z,24.07
2019-05-12T04:31:24.888Z,24.07
2019-05-12T04:33:54.664Z,24.10
2019-05-12T04:36:25.029Z,24.12
2019-05-12T04:38:55.791Z,24.14
2019-05-12T04:41:26.079Z,24.15
2019-05-12T04:43:55.706Z,24.15
2019-05-12T04:46:25.436Z,24.14
2019-05-12T04:48:54.853Z,23.99
2019-05-12T04:51:25.944Z,24.13
2019-05-12T04:53:55.010Z,23.97
2019-05-12T04:56:25.007Z,23.97
2019-05-12T04:58:54.707Z,24.10
2019-05-12T05:01:25.409Z,24.10
2019-05-12T05:03:54.532Z,24.12
2019-05-12T05:06:25.074Z,24.12
2019-05-12T05:08:54.502Z,24.12
2019-05-12T05:11:24.956Z,24.10
2019-05-12T05:13:54.755Z,24.13
2019-05-12T05:16:24.859Z,24.14
2019-05-12T05:18:54.301Z,24.11
2019-05-12T05:21:24.138Z,24.13
2019-05-12T05:23:53.692Z,24.12
2019-05-12T05:26:27.960Z,24.08
2019-05-12T05:28:54.093Z,24.08
2019-05-12T05:31:21.103Z,24.12
2019-05-12T05:33:50.252Z,24.12
2019-05-12T05:36:19.875Z,24.17
2019-05-12T05:38:51.071Z,24.25
2019-05-12T05:41:17.064Z,24.25
2019-05-12T05:43:48.586Z,24.31
2019-05-12T05:46:15.600Z,24.16
2019-05-12T05:48:44.063Z,24.12
2019-05-12T05:51:13.617Z,24.12
2019-05-12T05:53:44.251Z,24.16
2019-05-12T05:56:14.246Z,24.18
2019-05-12T05:58:49.589Z,24.15
2019-05-12T06:01:13.749Z,24.15
2019-05-12T06:03:44.049Z,24.18
2019-05-12T06:06:13.055Z,24.13
2019-05-12T06:08:44.402Z,24.17
2019-05-12T06:11:14.834Z,24.05
2019-05-12T06:13:44.278Z,24.16
2019-05-12T06:16:20.158Z,24.14
2019-05-12T06:18:43.969Z,24.14
2019-05-12T06:21:13.783Z,24.20
2019-05-12T06:23:43.432Z,24.18
2019-05-12T06:26:14.028Z,24.18
2019-05-12T06:28:41.841Z,24.08
2019-05-12T06:31:13.573Z,24.20
2019-05-12T06:33:40.780Z,24.28
2019-05-12T06:36:14.133Z,24.29
2019-05-12T06:38:40.544Z,24.17
2019-05-12T06:41:12.419Z,24.17
2019-05-12T06:44:17.382Z,24.35
2019-05-12T06:46:48.179Z,24.27
2019-05-12T06:49:17.657Z,24.38
2019-05-12T06:51:45.301Z,24.45
2019-05-12T06:54:15.125Z,24.59
2019-05-12T06:56:43.550Z,24.59
2019-05-12T06:59:12.351Z,24.60
2019-05-12T07:01:45.043Z,24.60
2019-05-12T07:04:14.120Z,24.69
2019-05-12T07:06:44.142Z,24.76
2019-05-12T07:14:27.269Z,24.99
2019-05-12T07:17:01.791Z,24.86
2019-05-12T07:19:29.960Z,24.86
2019-05-12T07:22:00.055Z,24.87
2019-05-12T07:24:28.086Z,24.87
2019-05-12T07:27:04.106Z,24.88
2019-05-12T07:29:26.781Z,24.87
2019-05-12T07:31:54.439Z,24.89
2019-05-12T07:34:24.122Z,24.89
2019-05-12T07:36:53.835Z,24.85
2019-05-12T07:39:24.181Z,24.85
2019-05-12T07:41:54.962Z,24.98
2019-05-12T07:44:25.022Z,25.04
2019-05-12T07:46:54.069Z,25.13
2019-05-12T07:49:34.531Z,24.91
2019-05-12T07:51:54.239Z,24.85
2019-05-12T07:54:23.610Z,24.85
2019-05-12T07:56:54.000Z,24.78
2019-05-12T07:59:26.656Z,25.03
2019-05-12T08:01:54.998Z,25.06
2019-05-12T08:04:23.903Z,25.06
2019-05-12T08:06:53.824Z,24.96
2019-05-12T08:09:24.085Z,24.96
2019-05-12T08:11:54.083Z,25.05
2019-05-12T08:14:28.531Z,25.10
2019-05-12T08:16:54.259Z,25.18
2019-05-12T08:19:25.575Z,25.18
2019-05-12T08:21:53.861Z,25.25
2019-05-12T08:24:23.682Z,25.25
2019-05-12T08:26:59.605Z,25.30
2019-05-12T08:29:24.261Z,25.24
2019-05-12T08:31:54.807Z,25.25
2019-05-12T08:34:23.789Z,25.25
2019-05-12T08:36:57.923Z,25.43
2019-05-12T08:41:14.419Z,25.43
2019-05-12T08:43:47.014Z,25.31
2019-05-12T08:46:15.708Z,25.20
2019-05-12T08:48:44.720Z,25.27
2019-05-12T08:51:16.754Z,25.27
2019-05-12T08:53:44.062Z,25.47
2019-05-12T08:56:14.757Z,25.47
2019-05-12T08:58:48.281Z,25.47
2019-05-12T09:01:13.669Z,25.43
2019-05-12T09:03:44.115Z,25.43
2019-05-12T09:06:15.513Z,25.58
2019-05-12T09:08:45.222Z,25.68
2019-05-12T09:11:13.934Z,25.47
2019-05-12T09:14:41.319Z,25.60
2019-05-12T09:17:10.616Z,25.45
2019-05-12T09:19:40.637Z,25.45
2019-05-12T09:22:16.995Z,25.37
2019-05-12T09:24:40.675Z,25.61
2019-05-12T09:27:09.163Z,25.61
2019-05-12T09:29:37.532Z,25.77
2019-05-12T09:32:09.531Z,25.72
2019-05-12T09:34:36.086Z,25.86
2019-05-12T09:37:04.396Z,25.86
2019-05-12T09:39:34.081Z,25.80
2019-05-12T09:42:03.827Z,25.70
2019-05-12T09:47:21.774Z,25.70
2019-05-12T09:49:40.230Z,25.52
2019-05-12T09:52:13.981Z,25.56
2019-05-12T09:54:40.921Z,25.56
2019-05-12T09:57:08.874Z,25.73
2019-05-12T09:59:37.488Z,26.05
2019-05-12T10:02:10.406Z,25.80
2019-05-12T10:04:37.147Z,25.80
2019-05-12T10:07:07.527Z,25.96
2019-05-12T10:09:36.309Z,26.24
2019-05-12T10:12:05.597Z,26.39
2019-05-12T10:14:35.095Z,26.39
2019-05-12T10:19:23.522Z,26.35
2019-05-12T10:21:55.191Z,26.35
2019-05-12T10:24:24.109Z,26.51
2019-05-12T10:26:54.176Z,26.41
2019-05-12T10:29:24.387Z,26.41
2019-05-12T10:31:53.696Z,26.36
2019-05-12T10:34:23.875Z,26.36
2019-05-12T10:36:53.746Z,26.53
2019-05-12T10:39:24.330Z,26.51
2019-05-12T10:41:54.603Z,26.51
2019-05-12T10:44:22.506Z,26.61
2019-05-12T10:46:53.897Z,26.61
2019-05-12T10:49:23.338Z,26.87
2019-05-12T10:51:53.775Z,26.92
2019-05-12T10:54:24.250Z,27.07
2019-05-12T10:56:54.614Z,27.07
2019-05-12T10:59:32.140Z,26.97
2019-05-12T11:01:55.301Z,26.97
2019-05-12T11:04:35.216Z,26.89
2019-05-12T11:06:53.815Z,26.73
2019-05-12T11:09:27.331Z,26.66
2019-05-12T11:11:54.158Z,26.68
2019-05-12T11:14:26.336Z,26.62
2019-05-12T11:16:55.444Z,26.67
2019-05-12T11:19:24.993Z,26.46
2019-05-12T11:21:54.630Z,26.33
2019-05-12T11:24:22.602Z,26.33
2019-05-12T11:26:53.679Z,26.59
2019-05-12T11:29:23.567Z,26.81
2019-05-12T11:32:47.820Z,27.00
2019-05-12T11:35:17.672Z,27.00
2019-05-12T11:37:46.543Z,26.77
2019-05-12T11:40:14.770Z,26.75
2019-05-12T11:42:46.792Z,26.75
2019-05-12T11:45:13.791Z,27.03
2019-05-12T11:47:44.663Z,27.03
2019-05-12T11:50:13.261Z,27.09
2019-05-12T11:52:46.076Z,26.65
2019-05-12T11:55:13.458Z,26.63
2019-05-12T11:57:43.756Z,26.63
2019-05-12T12:01:19.792Z,26.61
2019-05-12T12:03:49.455Z,26.61
2019-05-12T12:06:17.859Z,26.77
2019-05-12T12:08:46.853Z,26.97
2019-05-12T12:11:21.926Z,26.97
2019-05-12T12:13:46.103Z,27.38
2019-05-12T12:16:15.523Z,27.38
2019-05-12T12:18:46.606Z,27.48
2019-05-12T12:21:15.125Z,27.44
2019-05-12T12:23:48.787Z,27.44
2019-05-12T12:26:30.007Z,27.40
2019-05-12T12:28:55.858Z,27.27
2019-05-12T12:31:24.142Z,27.27
2019-05-12T12:33:53.600Z,27.14
2019-05-12T12:36:23.694Z,27.06
2019-05-12T12:38:53.360Z,26.68
2019-05-12T12:41:23.577Z,26.68
2019-05-12T12:43:54.024Z,26.67
2019-05-12T12:46:26.577Z,26.68
2019-05-12T12:48:55.049Z,26.91
2019-05-12T12:51:24.788Z,26.91
2019-05-12T12:53:54.179Z,27.16
2019-05-12T12:56:25.152Z,27.21
2019-05-12T12:58:55.258Z,27.21
2019-05-12T13:02:54.378Z,27.03
2019-05-12T13:05:23.951Z,27.03
2019-05-12T13:07:53.473Z,27.36
2019-05-12T13:10:24.789Z,27.62
2019-05-12T13:12:58.728Z,27.17
2019-05-12T13:15:25.219Z,26.88
2019-05-12T13:17:54.420Z,26.88
2019-05-12T13:20:23.939Z,26.44
2019-05-12T13:22:53.614Z,26.44
2019-05-12T13:25:22.623Z,26.20
2019-05-12T13:27:53.443Z,26.26
2019-05-12T13:30:24.213Z,26.26
2019-05-12T13:32:52.989Z,26.45
2019-05-12T13:35:23.607Z,26.47
2019-05-12T13:37:58.443Z,26.47
2019-05-12T13:42:35.683Z,26.24
2019-05-12T13:45:00.432Z,26.24
2019-05-12T13:47:35.335Z,26.20
2019-05-12T13:50:00.280Z,26.16
2019-05-12T13:52:30.491Z,26.16
2019-05-12T13:55:00.113Z,26.11
2019-05-12T13:57:30.763Z,26.19
2019-05-12T14:00:06.797Z,26.20
2019-05-12T14:05:15.071Z,26.22
2019-05-12T14:07:43.675Z,26.11
2019-05-12T14:10:13.878Z,26.11
2019-05-12T14:12:43.715Z,26.09
2019-05-12T14:15:14.494Z,26.15
2019-05-12T14:17:43.828Z,26.16
2019-05-12T14:20:15.717Z,26.16
2019-05-12T14:22:44.738Z,26.20
2019-05-12T14:25:15.254Z,26.18
2019-05-12T14:27:43.718Z,26.19
2019-05-12T14:30:13.805Z,26.24
2019-05-12T14:32:43.788Z,26.17
2019-05-12T14:35:10.937Z,26.08
2019-05-12T14:37:40.271Z,25.99
2019-05-12T14:40:08.972Z,26.11
2019-05-12T14:42:39.745Z,26.23
2019-05-12T14:45:07.948Z,26.23
2019-05-12T14:47:38.986Z,26.36
2019-05-12T14:50:06.713Z,26.40
2019-05-12T14:52:35.552Z,26.27
2019-05-12T14:55:05.621Z,26.27
2019-05-12T14:57:37.512Z,26.17
2019-05-12T15:00:04.769Z,26.11
2019-05-12T15:02:37.883Z,26.29
2019-05-12T15:05:41.418Z,26.44
2019-05-12T15:08:08.158Z,26.61
2019-05-12T15:10:36.659Z,26.86
2019-05-12T15:13:04.755Z,26.86
2019-05-12T15:15:33.636Z,26.72
2019-05-12T15:18:04.719Z,26.72
2019-05-12T15:20:33.193Z,26.53
2019-05-12T15:23:03.720Z,26.28
2019-05-12T15:25:35.460Z,26.40
2019-05-12T15:28:05.237Z,26.27
2019-05-12T15:30:33.709Z,26.27
2019-05-12T15:33:04.582Z,26.45
2019-05-12T15:35:34.223Z,26.45
2019-05-12T15:38:03.725Z,26.67
2019-05-12T15:40:33.448Z,26.67
2019-05-12T15:46:45.979Z,26.36
2019-05-12T15:49:14.130Z,26.36
2019-05-12T15:51:54.030Z,26.32
2019-05-12T15:54:14.767Z,26.29
2019-05-12T15:56:43.995Z,26.21
2019-05-12T15:59:14.613Z,26.21
2019-05-12T16:01:43.920Z,26.21
2019-05-12T16:04:15.034Z,26.34
2019-05-12T16:06:45.120Z,26.58
2019-05-12T16:09:13.232Z,26.80
2019-05-12T16:11:42.941Z,26.80
2019-05-12T16:14:11.694Z,26.98
2019-05-12T16:16:42.719Z,26.92
2019-05-12T16:19:12.065Z,26.87
2019-05-12T16:22:03.610Z,26.90
2019-05-12T16:24:31.116Z,26.90
2019-05-12T16:26:59.777Z,26.98
2019-05-12T16:29:28.523Z,26.60
2019-05-12T16:31:56.657Z,26.62
2019-05-12T16:34:25.097Z,26.66
2019-05-12T16:36:54.755Z,26.66
2019-05-12T16:39:24.064Z,26.58
2019-05-12T16:41:54.265Z,26.00
2019-05-12T16:44:26.066Z,25.81
2019-05-12T16:46:54.590Z,25.71
2019-05-12T16:49:24.943Z,25.71
2019-05-12T16:51:54.273Z,25.71
2019-05-12T16:54:24.041Z,25.71
2019-05-12T16:56:53.945Z,25.82
2019-05-12T16:59:24.619Z,25.91
2019-05-12T17:01:54.277Z,25.91
2019-05-12T17:04:23.746Z,26.11
2019-05-12T17:06:51.990Z,26.02
2019-05-12T17:09:20.002Z,26.15
2019-05-12T17:11:52.553Z,26.15
2019-05-12T17:14:20.385Z,26.08
2019-05-12T17:16:48.138Z,26.17
2019-05-12T17:19:16.870Z,26.14
2019-05-12T17:21:49.326Z,26.14
2019-05-12T17:24:15.358Z,26.13
2019-05-12T17:26:44.058Z,26.08
2019-05-12T17:29:13.864Z,26.08
2019-05-12T17:31:44.399Z,26.00
2019-05-12T17:35:14.716Z,26.06
2019-05-12T17:37:42.870Z,26.23
2019-05-12T17:40:15.589Z,26.23
2019-05-12T17:42:43.842Z,26.14
2019-05-12T17:45:15.802Z,26.14
2019-05-12T17:47:44.101Z,26.08
2019-05-12T17:50:10.823Z,26.08
2019-05-12T17:53:55.465Z,26.13
2019-05-12T17:56:33.219Z,26.07
2019-05-12T17:59:59.931Z,26.12
2019-05-12T18:02:28.015Z,25.94
2019-05-12T18:05:12.302Z,25.94
2019-05-12T18:07:40.124Z,26.01
2019-05-12T18:10:58.895Z,25.92
2019-05-12T18:13:28.325Z,26.04
2019-05-12T18:15:57.045Z,26.04
2019-05-12T18:18:33.207Z,26.03
2019-05-12T18:20:58.328Z,26.00
2019-05-12T18:23:30.452Z,25.96
2019-05-12T18:26:02.990Z,25.78
2019-05-12T18:28:33.315Z,25.74
2019-05-12T18:31:01.622Z,25.74
2019-05-12T18:34:58.113Z,25.86
2019-05-12T18:37:26.973Z,25.80
2019-05-12T18:39:56.079Z,25.77
2019-05-12T18:42:25.984Z,25.71
2019-05-12T18:44:54.800Z,25.52
2019-05-12T18:47:31.734Z,25.52
2019-05-12T18:49:56.235Z,25.54
2019-05-12T18:52:29.362Z,25.52
2019-05-12T18:54:57.685Z,25.50
2019-05-12T18:57:27.038Z,25.59
2019-05-12T19:00:01.559Z,25.58
2019-05-12T19:02:28.595Z,25.58
2019-05-12T19:04:56.236Z,25.43
2019-05-12T19:07:54.249Z,25.52
2019-05-12T19:10:24.100Z,25.54
2019-05-12T19:13:01.041Z,25.54
2019-05-12T19:15:52.684Z,25.53
2019-05-12T19:18:24.337Z,25.53
2019-05-12T19:20:48.977Z,25.52
2019-05-12T19:23:17.086Z,25.52
2019-05-12T19:25:44.746Z,25.49
2019-05-12T19:28:13.510Z,25.45
2019-05-12T19:30:41.027Z,25.48
2019-05-12T19:33:10.764Z,25.36
2019-05-12T19:35:38.154Z,25.31
2019-05-12T19:38:08.083Z,25.26
2019-05-12T19:40:36.054Z,25.19
2019-05-12T19:43:08.211Z,25.19
2019-05-12T19:45:33.804Z,25.16
2019-05-12T19:48:01.108Z,25.12
2019-05-12T19:50:28.311Z,25.04
2019-05-12T19:52:56.371Z,25.02
2019-05-12T19:55:27.315Z,25.01
2019-05-12T19:58:02.328Z,24.99
2019-05-12T20:00:26.810Z,24.95
2019-05-12T20:02:54.371Z,24.94
2019-05-12T20:05:23.768Z,24.89
2019-05-12T20:07:53.721Z,24.84
2019-05-12T20:10:24.142Z,24.80
2019-05-12T20:12:54.724Z,24.78
2019-05-12T20:15:20.407Z,24.78
2019-05-12T20:17:48.822Z,24.77
2019-05-12T20:20:17.949Z,24.77
2019-05-12T20:22:45.784Z,24.75
2019-05-12T20:25:14.622Z,24.73
2019-05-12T20:27:44.607Z,24.72
2019-05-12T20:30:17.184Z,24.65
2019-05-12T20:32:43.512Z,24.59
2019-05-12T20:35:11.210Z,24.62
2019-05-12T20:37:46.605Z,24.64
2019-05-12T20:40:08.364Z,24.64
2019-05-12T20:42:42.258Z,24.66
2019-05-12T20:45:05.686Z,24.64
2019-05-12T20:47:33.842Z,24.54
2019-05-12T20:50:04.517Z,24.54
2019-05-12T20:52:34.231Z,24.59
2019-05-12T20:55:03.694Z,24.64
2019-05-12T20:57:31.141Z,24.73
2019-05-12T21:00:04.883Z,24.76
2019-05-12T21:02:28.378Z,24.77
2019-05-12T21:05:00.978Z,24.77
2019-05-12T21:07:27.078Z,24.80
2019-05-12T21:09:54.692Z,24.82
2019-05-12T21:12:24.062Z,24.80
2019-05-12T21:14:53.301Z,24.79
2019-05-12T21:17:39.128Z,24.78
2019-05-12T21:19:56.856Z,24.84
2019-05-12T21:22:23.723Z,24.86
2019-05-12T21:24:53.247Z,24.85
2019-05-12T21:27:20.265Z,24.88
2019-05-12T21:29:47.519Z,24.85
2019-05-12T21:32:16.917Z,24.88
2019-05-12T21:34:44.565Z,24.88
2019-05-12T21:37:13.988Z,24.89
2019-05-12T21:39:46.847Z,24.91
2019-05-12T21:42:11.737Z,24.91
2019-05-12T21:44:41.437Z,24.93
2019-05-12T21:47:10.581Z,24.93
2019-05-12T21:49:42.578Z,24.95
2019-05-12T21:52:08.028Z,24.91
2019-05-12T21:54:39.454Z,24.86
2019-05-12T21:57:05.033Z,24.77
2019-05-12T21:59:35.387Z,24.74
2019-05-12T22:02:04.113Z,24.70
2019-05-12T22:04:35.274Z,24.69
2019-05-12T22:07:00.671Z,24.61
2019-05-12T22:09:32.890Z,24.59
2019-05-12T22:11:57.308Z,24.57
2019-05-12T22:14:24.708Z,24.56
2019-05-12T22:16:54.337Z,24.55
2019-05-12T22:19:21.989Z,24.50
2019-05-12T22:21:49.692Z,24.51
2019-05-12T22:24:17.066Z,24.49
2019-05-12T22:27:35.919Z,24.49
2019-05-12T22:30:04.417Z,24.32
2019-05-12T22:32:33.129Z,24.32
2019-05-12T22:35:00.354Z,24.39
2019-05-12T22:37:29.523Z,24.35
2019-05-12T22:39:57.515Z,24.36
2019-05-12T22:42:24.988Z,24.36
2019-05-12T22:45:01.212Z,24.33
2019-05-12T22:47:23.999Z,24.28
2019-05-12T22:49:55.340Z,24.26
2019-05-12T22:52:20.490Z,24.26
2019-05-12T22:54:50.957Z,24.23
2019-05-12T22:57:17.646Z,24.21
2019-05-12T22:59:46.038Z,24.19
2019-05-12T23:02:16.057Z,24.15
2019-05-12T23:04:44.015Z,24.17
2019-05-12T23:07:18.751Z,24.15
2019-05-12T23:09:43.869Z,24.15
2019-05-12T23:12:18.537Z,24.12
2019-05-12T23:14:44.416Z,24.09
2019-05-12T23:17:13.874Z,24.12
2019-05-12T23:19:51.575Z,24.09
2019-05-12T23:22:14.406Z,24.03
2019-05-12T23:24:44.336Z,24.04
2019-05-12T23:27:13.697Z,24.04
2019-05-12T23:29:44.364Z,24.00
2019-05-12T23:32:15.033Z,23.77
2019-05-12T23:34:54.094Z,23.99
2019-05-12T23:37:17.278Z,23.96
2019-05-12T23:39:46.454Z,23.96
2019-05-12T23:44:00.550Z,23.97
2019-05-12T23:46:30.026Z,23.87
2019-05-12T23:48:59.449Z,23.83
2019-05-12T23:51:28.746Z,23.89
2019-05-12T23:53:57.877Z,23.87
2019-05-12T23:56:27.360Z,23.84
2019-05-12T23:58:56.721Z,23.85
